createdAt,value
2019-02-02T00:01:13.678Z,0.51
2019-02-02T00:06:17.064Z,0.51
2019-02-02T00:11:21.655Z,0.43
2019-02-02T00:16:25.027Z,0.45
2019-02-02T00:21:28.488Z,0.46
2019-02-02T00:26:32.257Z,0.42
2019-02-02T00:31:35.551Z,0.39
2019-02-02T00:36:39.141Z,0.08
2019-02-02T00:41:42.536Z,0.17
2019-02-02T00:46:46.187Z,0.11
2019-02-02T00:51:49.721Z,0.04
2019-02-02T00:56:53.104Z,0.00
2019-02-02T01:01:56.833Z,-0.07
2019-02-02T01:07:00.241Z,-0.26
2019-02-02T01:12:03.676Z,-0.43
2019-02-02T01:17:07.333Z,-0.44
2019-02-02T01:22:10.757Z,-0.44
2019-02-02T01:27:14.200Z,-0.59
2019-02-02T01:32:17.669Z,-0.67
2019-02-02T01:37:21.085Z,-0.67
2019-02-02T01:42:24.500Z,-0.77
2019-02-02T01:47:28.064Z,-0.84
2019-02-02T01:52:31.585Z,-0.90
2019-02-02T01:57:35.025Z,-0.96
2019-02-02T02:02:38.480Z,-0.84
2019-02-02T02:07:42.416Z,-0.86
2019-02-02T02:12:45.964Z,-0.92
2019-02-02T02:17:49.438Z,-0.93
2019-02-02T02:22:53.435Z,-0.90
2019-02-02T02:27:57.038Z,-0.91
2019-02-02T02:33:00.658Z,-0.86
2019-02-02T02:38:04.065Z,-0.90
2019-02-02T02:43:07.707Z,-0.79
2019-02-02T02:48:11.162Z,-0.82
2019-02-02T02:53:14.731Z,-0.81
2019-02-02T02:58:18.323Z,-0.76
2019-02-02T03:03:21.939Z,-0.77
2019-02-02T03:08:25.536Z,-0.77
2019-02-02T03:13:29.091Z,-0.73
2019-02-02T03:18:32.662Z,-0.80
2019-02-02T03:23:36.408Z,-0.73
2019-02-02T03:28:39.806Z,-0.69
2019-02-02T03:33:43.430Z,-0.69
2019-02-02T03:38:46.886Z,-0.69
2019-02-02T03:43:50.454Z,-0.70
2019-02-02T03:48:53.836Z,-0.72
2019-02-02T03:54:08.259Z,-0.69
2019-02-02T03:59:06.735Z,-0.72
2019-02-02T04:04:04.333Z,-0.74
2019-02-02T04:09:08.121Z,-0.75
2019-02-02T04:14:11.619Z,-0.78
2019-02-02T04:19:15.165Z,-0.76
2019-02-02T04:24:18.670Z,-0.82
2019-02-02T04:29:22.364Z,-0.75
2019-02-02T04:34:25.928Z,-0.72
2019-02-02T04:39:29.434Z,-0.73
2019-02-02T04:44:32.922Z,-0.79
2019-02-02T04:49:36.460Z,-0.78
2019-02-02T04:54:39.972Z,-0.79
2019-02-02T04:59:43.380Z,-0.77
2019-02-02T05:04:46.744Z,-0.77
2019-02-02T05:09:50.341Z,-0.79
2019-02-02T05:14:53.801Z,-0.79
2019-02-02T05:19:57.186Z,-0.77
2019-02-02T05:25:00.570Z,-0.78
2019-02-02T05:30:04.553Z,-0.75
2019-02-02T05:35:08.541Z,-0.72
2019-02-02T05:40:13.536Z,-0.72
2019-02-02T05:45:18.193Z,-0.66
2019-02-02T05:50:23.163Z,-0.64
2019-02-02T05:55:26.545Z,-0.62
2019-02-02T06:00:47.948Z,-0.65
2019-02-02T06:05:51.348Z,-0.58
2019-02-02T06:10:54.704Z,-0.58
2019-02-02T06:15:58.117Z,-0.55
2019-02-02T06:21:01.544Z,-0.56
2019-02-02T06:26:04.954Z,-0.54
2019-02-02T06:31:08.355Z,-0.64
2019-02-02T06:36:11.740Z,-0.68
2019-02-02T06:41:15.134Z,-0.72
2019-02-02T06:46:18.591Z,-0.74
2019-02-02T06:51:21.963Z,-0.77
2019-02-02T06:56:25.380Z,-0.65
2019-02-02T07:01:29.030Z,-0.71
2019-02-02T07:06:32.481Z,-0.62
2019-02-02T07:11:35.868Z,-0.53
2019-02-02T07:16:39.300Z,-0.45
2019-02-02T07:21:42.797Z,-0.42
2019-02-02T07:26:46.202Z,-0.39
2019-02-02T07:31:49.758Z,-0.32
2019-02-02T07:36:53.146Z,-0.27
2019-02-02T07:41:56.686Z,-0.29
2019-02-02T07:47:00.050Z,-0.24
2019-02-02T07:52:03.660Z,-0.22
2019-02-02T07:57:07.040Z,-0.16
2019-02-02T08:02:10.461Z,-0.09
2019-02-02T08:07:13.832Z,-0.11
2019-02-02T08:12:19.474Z,0.00
2019-02-02T08:17:20.649Z,0.04
2019-02-02T08:22:24.046Z,-0.01
2019-02-02T08:27:27.441Z,0.10
2019-02-02T08:32:30.848Z,0.15
2019-02-02T08:37:34.344Z,0.12
2019-02-02T08:42:37.764Z,0.11
2019-02-02T08:47:41.416Z,0.18
2019-02-02T08:52:44.818Z,0.24
2019-02-02T08:57:48.415Z,0.29
2019-02-02T09:02:52.082Z,0.40
2019-02-02T09:07:55.644Z,0.63
2019-02-02T09:12:59.156Z,0.73
2019-02-02T09:18:02.740Z,0.79
2019-02-02T09:23:06.827Z,0.55
2019-02-02T09:28:09.702Z,0.43
2019-02-02T09:33:13.109Z,0.51
2019-02-02T09:38:16.662Z,0.44
2019-02-02T09:43:20.061Z,0.57
2019-02-02T09:48:23.556Z,0.44
2019-02-02T09:53:26.997Z,0.46
2019-02-02T09:58:30.617Z,0.61
2019-02-02T10:03:33.987Z,0.49
2019-02-02T10:08:37.667Z,0.65
2019-02-02T10:13:41.156Z,0.50
2019-02-02T10:18:44.531Z,0.54
2019-02-02T10:23:48.069Z,0.63
2019-02-02T10:28:51.502Z,0.59
2019-02-02T10:33:55.096Z,0.53
2019-02-02T10:38:59.820Z,0.70
2019-02-02T10:44:03.317Z,0.64
2019-02-02T10:49:07.005Z,0.60
2019-02-02T10:54:10.402Z,0.80
2019-02-02T10:59:13.977Z,1.12
2019-02-02T11:04:17.566Z,0.76
2019-02-02T11:09:21.108Z,0.92
2019-02-02T11:14:24.694Z,0.70
2019-02-02T11:19:28.351Z,0.74
2019-02-02T11:24:31.841Z,0.77
2019-02-02T11:29:35.356Z,0.67
2019-02-02T11:34:39.934Z,0.74
2019-02-02T11:39:43.329Z,0.74
2019-02-02T11:44:47.013Z,0.87
2019-02-02T11:49:50.438Z,1.01
2019-02-02T11:54:54.031Z,0.89
2019-02-02T11:59:57.528Z,1.34
2019-02-02T12:05:01.030Z,1.41
2019-02-02T12:10:04.983Z,1.36
2019-02-02T12:15:10.372Z,1.57
2019-02-02T12:20:15.466Z,1.67
2019-02-02T12:25:19.033Z,1.74
2019-02-02T12:30:26.137Z,1.53
2019-02-02T12:35:29.881Z,1.66
2019-02-02T12:40:33.524Z,1.84
2019-02-02T12:45:45.613Z,1.78
2019-02-02T12:50:49.134Z,1.83
2019-02-02T12:55:52.768Z,1.85
2019-02-02T13:00:56.334Z,1.87
2019-02-02T13:06:00.056Z,1.98
2019-02-02T13:11:04.205Z,1.95
2019-02-02T13:16:07.688Z,2.07
2019-02-02T13:21:11.444Z,1.85
2019-02-02T13:26:14.958Z,2.22
2019-02-02T13:31:20.871Z,2.11
2019-02-02T13:36:22.432Z,2.49
2019-02-02T13:41:26.148Z,2.53
2019-02-02T13:46:29.694Z,2.65
2019-02-02T13:51:33.413Z,2.48
2019-02-02T13:56:37.148Z,2.50
2019-02-02T14:01:42.400Z,2.51
2019-02-02T14:06:44.671Z,2.52
2019-02-02T14:11:48.211Z,2.48
2019-02-02T14:16:53.527Z,2.45
2019-02-02T14:21:58.245Z,2.81
2019-02-02T14:27:01.861Z,2.99
2019-02-02T14:32:05.642Z,2.67
2019-02-02T14:37:09.434Z,2.63
2019-02-02T14:42:13.405Z,2.84
2019-02-02T14:47:16.993Z,2.94
2019-02-02T14:52:20.767Z,2.81
2019-02-02T14:57:24.394Z,2.83
2019-02-02T15:02:28.031Z,2.83
2019-02-02T15:07:31.709Z,2.83
2019-02-02T15:12:37.090Z,3.04
2019-02-02T15:17:39.094Z,2.95
2019-02-02T15:22:43.100Z,2.88
2019-02-02T15:27:46.900Z,2.76
2019-02-02T15:32:50.812Z,2.71
2019-02-02T15:37:56.221Z,2.61
2019-02-02T15:43:05.674Z,2.58
2019-02-02T15:48:12.662Z,2.55
2019-02-02T15:53:16.264Z,2.48
2019-02-02T15:58:19.933Z,2.32
2019-02-02T16:03:23.760Z,2.23
2019-02-02T16:08:27.482Z,2.15
2019-02-02T16:13:31.179Z,2.13
2019-02-02T16:18:34.807Z,2.01
2019-02-02T16:23:38.809Z,2.11
2019-02-02T16:28:42.507Z,2.13
2019-02-02T16:33:46.295Z,1.97
2019-02-02T16:38:49.859Z,1.92
2019-02-02T16:43:53.388Z,1.90
2019-02-02T16:48:57.017Z,1.85
2019-02-02T16:54:00.552Z,1.85
2019-02-02T16:59:06.303Z,1.79
2019-02-02T17:04:15.972Z,1.77
2019-02-02T17:09:14.128Z,1.72
2019-02-02T17:14:17.967Z,1.67
2019-02-02T17:19:20.748Z,1.73
2019-02-02T17:24:24.423Z,1.75
2019-02-02T17:29:27.997Z,1.78
2019-02-02T17:34:31.678Z,1.76
2019-02-02T17:39:35.260Z,1.74
2019-02-02T17:44:38.789Z,1.74
2019-02-02T17:49:42.332Z,1.70
2019-02-02T17:54:45.889Z,1.62
2019-02-02T17:59:49.474Z,1.63
2019-02-02T18:04:53.511Z,1.67
2019-02-02T18:09:56.884Z,1.63
2019-02-02T18:15:00.534Z,1.65
2019-02-02T18:20:05.097Z,1.64
2019-02-02T18:25:10.238Z,1.63
2019-02-02T18:30:16.955Z,1.60
2019-02-02T18:35:20.868Z,1.55
2019-02-02T18:40:25.142Z,1.49
2019-02-02T18:45:28.837Z,1.46
2019-02-02T18:50:32.560Z,1.43
2019-02-02T18:55:40.002Z,1.41
2019-02-02T19:00:44.204Z,1.37
2019-02-02T19:05:47.804Z,1.38
2019-02-02T19:10:51.528Z,1.39
2019-02-02T19:15:55.365Z,1.34
2019-02-02T19:20:59.067Z,1.33
2019-02-02T19:26:03.112Z,1.30
2019-02-02T19:31:06.655Z,1.28
2019-02-02T19:36:10.167Z,1.32
2019-02-02T19:41:13.816Z,1.34
2019-02-02T19:46:17.458Z,1.32
2019-02-02T19:51:21.105Z,1.33
2019-02-02T19:56:24.873Z,1.33
2019-02-02T20:01:29.473Z,1.31
2019-02-02T20:06:34.004Z,1.30
2019-02-02T20:11:37.796Z,1.25
2019-02-02T20:16:41.605Z,1.16
2019-02-02T20:21:45.453Z,1.18
2019-02-02T20:26:49.230Z,1.16
2019-02-02T20:31:52.875Z,1.10
2019-02-02T20:36:56.701Z,1.00
2019-02-02T20:42:00.639Z,0.99
2019-02-02T20:47:04.301Z,1.02
2019-02-02T20:52:07.864Z,1.01
2019-02-02T20:57:11.727Z,0.95
2019-02-02T21:02:15.412Z,0.93
2019-02-02T21:07:19.190Z,0.86
2019-02-02T21:12:22.887Z,0.78
2019-02-02T21:17:26.659Z,0.67
2019-02-02T21:22:30.271Z,0.63
2019-02-02T21:27:33.808Z,0.55
2019-02-02T21:32:37.458Z,0.47
2019-02-02T21:37:40.949Z,0.48
2019-02-02T21:42:44.442Z,0.46
2019-02-02T21:47:47.926Z,0.44
2019-02-02T21:52:52.110Z,0.51
2019-02-02T21:57:55.687Z,0.54
2019-02-02T22:02:59.264Z,0.41
2019-02-02T22:08:02.734Z,0.38
2019-02-02T22:13:06.908Z,0.28
2019-02-02T22:18:10.433Z,0.20
2019-02-02T22:23:14.435Z,0.19
2019-02-02T22:28:18.267Z,0.22
2019-02-02T22:33:22.088Z,0.18
2019-02-02T22:38:25.737Z,0.12
2019-02-02T22:43:29.687Z,0.15
2019-02-02T22:48:33.741Z,0.14
2019-02-02T22:53:37.683Z,0.12
2019-02-02T22:58:41.536Z,0.05
2019-02-02T23:03:49.752Z,-0.01
2019-02-02T23:09:05.704Z,-0.03
2019-02-02T23:14:40.743Z,-0.05
2019-02-02T23:19:41.993Z,0.00
2019-02-02T23:24:45.634Z,-0.04
2019-02-02T23:29:49.271Z,-0.13
2019-02-02T23:34:52.862Z,0.07
2019-02-02T23:39:56.411Z,-0.03
2019-02-02T23:44:59.974Z,-0.05
2019-02-02T23:50:03.673Z,0.25
2019-02-02T23:55:07.160Z,0.23
